sensor_id;sensor_type;location;lat;lon;timestamp;P1;durP1;ratioP1;P2;durP2;ratioP2
34184;SDS011;20454;48.100;11.776;2023-02-18T00:01:27;1.80;;;1.42;;
34184;SDS011;20454;48.100;11.776;2023-02-18T00:03:56;3.60;;;1.33;;
34184;SDS011;20454;48.100;11.776;2023-02-18T00:06:25;3.35;;;1.35;;
34184;SDS011;20454;48.100;11.776;2023-02-18T00:08:54;7.65;;;1.77;;
34184;SDS011;20454;48.100;11.776;2023-02-18T00:11:22;3.67;;;2.22;;
34184;SDS011;20454;48.100;11.776;2023-02-18T00:13:52;3.08;;;1.77;;
34184;SDS011;20454;48.100;11.776;2023-02-18T00:16:21;4.05;;;1.60;;
34184;SDS011;20454;48.100;11.776;2023-02-18T00:18:48;2.42;;;2.08;;
34184;SDS011;20454;48.100;11.776;2023-02-18T00:21:15;2.30;;;1.77;;
34184;SDS011;20454;48.100;11.776;2023-02-18T00:23:40;2.53;;;1.45;;
34184;SDS011;20454;48.100;11.776;2023-02-18T00:26:07;1.63;;;1.52;;
34184;SDS011;20454;48.100;11.776;2023-02-18T00:28:37;1.60;;;1.40;;
34184;SDS011;20454;48.100;11.776;2023-02-18T00:31:10;1.88;;;1.55;;
34184;SDS011;20454;48.100;11.776;2023-02-18T00:33:39;2.65;;;1.50;;
34184;SDS011;20454;48.100;11.776;2023-02-18T00:36:06;1.52;;;1.42;;
34184;SDS011;20454;48.100;11.776;2023-02-18T00:38:36;2.22;;;1.50;;
34184;SDS011;20454;48.100;11.776;2023-02-18T00:41:03;1.85;;;1.65;;
34184;SDS011;20454;48.100;11.776;2023-02-18T00:43:29;1.95;;;1.35;;
34184;SDS011;20454;48.100;11.776;2023-02-18T00:45:55;1.40;;;1.30;;
34184;SDS011;20454;48.100;11.776;2023-02-18T00:48:21;2.33;;;1.77;;
34184;SDS011;20454;48.100;11.776;2023-02-18T00:50:47;1.60;;;1.50;;
34184;SDS011;20454;48.100;11.776;2023-02-18T00:53:12;1.63;;;1.25;;
34184;SDS011;20454;48.100;11.776;2023-02-18T00:55:39;1.55;;;1.20;;
34184;SDS011;20454;48.100;11.776;2023-02-18T00:58:09;1.55;;;1.00;;
34184;SDS011;20454;48.100;11.776;2023-02-18T01:00:35;2.22;;;1.55;;
34184;SDS011;20454;48.100;11.776;2023-02-18T01:03:02;1.23;;;1.13;;
34184;SDS011;20454;48.100;11.776;2023-02-18T01:05:30;2.67;;;1.35;;
34184;SDS011;20454;48.100;11.776;2023-02-18T01:07:56;1.95;;;1.40;;
34184;SDS011;20454;48.100;11.776;2023-02-18T01:10:22;2.35;;;0.98;;
34184;SDS011;20454;48.100;11.776;2023-02-18T01:12:48;2.25;;;1.65;;
34184;SDS011;20454;48.100;11.776;2023-02-18T01:15:14;1.90;;;1.20;;
34184;SDS011;20454;48.100;11.776;2023-02-18T01:17:40;1.52;;;1.08;;
34184;SDS011;20454;48.100;11.776;2023-02-18T01:20:06;2.40;;;1.30;;
34184;SDS011;20454;48.100;11.776;2023-02-18T01:22:34;2.15;;;1.27;;
34184;SDS011;20454;48.100;11.776;2023-02-18T01:25:01;1.00;;;0.85;;
34184;SDS011;20454;48.100;11.776;2023-02-18T01:27:27;3.10;;;1.40;;
34184;SDS011;20454;48.100;11.776;2023-02-18T01:29:53;1.88;;;1.13;;
34184;SDS011;20454;48.100;11.776;2023-02-18T01:32:19;2.47;;;1.38;;
34184;SDS011;20454;48.100;11.776;2023-02-18T01:34:45;2.38;;;1.63;;
34184;SDS011;20454;48.100;11.776;2023-02-18T01:37:11;2.63;;;1.30;;
34184;SDS011;20454;48.100;11.776;2023-02-18T01:39:37;2.13;;;1.30;;
34184;SDS011;20454;48.100;11.776;2023-02-18T01:42:04;1.48;;;1.35;;
34184;SDS011;20454;48.100;11.776;2023-02-18T01:44:33;3.92;;;1.55;;
34184;SDS011;20454;48.100;11.776;2023-02-18T01:46:59;1.25;;;1.10;;
34184;SDS011;20454;48.100;11.776;2023-02-18T01:49:29;1.50;;;1.40;;
34184;SDS011;20454;48.100;11.776;2023-02-18T01:52:03;2.75;;;1.50;;
34184;SDS011;20454;48.100;11.776;2023-02-18T01:54:38;2.10;;;1.40;;
34184;SDS011;20454;48.100;11.776;2023-02-18T01:57:09;1.77;;;1.67;;
34184;SDS011;20454;48.100;11.776;2023-02-18T01:59:41;1.55;;;1.20;;
34184;SDS011;20454;48.100;11.776;2023-02-18T02:02:24;1.60;;;1.50;;
34184;SDS011;20454;48.100;11.776;2023-02-18T02:04:52;8.18;;;1.90;;
34184;SDS011;20454;48.100;11.776;2023-02-18T02:07:19;1.35;;;1.10;;
34184;SDS011;20454;48.100;11.776;2023-02-18T02:09:49;1.33;;;1.20;;
34184;SDS011;20454;48.100;11.776;2023-02-18T02:26:54;2.25;;;1.50;;
34184;SDS011;20454;48.100;11.776;2023-02-18T02:35:25;2.08;;;1.35;;
34184;SDS011;20454;48.100;11.776;2023-02-18T02:44:19;0.95;;;0.95;;
34184;SDS011;20454;48.100;11.776;2023-02-18T02:50:05;1.23;;;1.00;;
34184;SDS011;20454;48.100;11.776;2023-02-18T02:53:12;1.00;;;0.90;;
34184;SDS011;20454;48.100;11.776;2023-02-18T02:55:49;1.27;;;1.13;;
34184;SDS011;20454;48.100;11.776;2023-02-18T02:58:15;3.13;;;0.90;;
34184;SDS011;20454;48.100;11.776;2023-02-18T07:27:37;0.38;;;0.30;;
34184;SDS011;20454;48.100;11.776;2023-02-18T07:30:04;35.58;;;28.15;;
34184;SDS011;20454;48.100;11.776;2023-02-18T07:32:30;1.65;;;1.55;;
34184;SDS011;20454;48.100;11.776;2023-02-18T07:34:56;0.88;;;0.88;;
34184;SDS011;20454;48.100;11.776;2023-02-18T07:37:22;0.80;;;0.80;;
34184;SDS011;20454;48.100;11.776;2023-02-18T07:39:48;0.70;;;0.70;;
34184;SDS011;20454;48.100;11.776;2023-02-18T07:42:13;0.85;;;0.60;;
34184;SDS011;20454;48.100;11.776;2023-02-18T07:44:39;0.70;;;0.60;;
34184;SDS011;20454;48.100;11.776;2023-02-18T07:47:06;0.65;;;0.40;;
34184;SDS011;20454;48.100;11.776;2023-02-18T07:49:36;2.40;;;0.50;;
34184;SDS011;20454;48.100;11.776;2023-02-18T07:52:02;0.50;;;0.43;;
34184;SDS011;20454;48.100;11.776;2023-02-18T07:54:28;0.52;;;0.52;;
34184;SDS011;20454;48.100;11.776;2023-02-18T07:56:53;0.70;;;0.70;;
34184;SDS011;20454;48.100;11.776;2023-02-18T07:59:19;0.60;;;0.60;;
34184;SDS011;20454;48.100;11.776;2023-02-18T11:00:54;0.80;;;0.60;;
34184;SDS011;20454;48.100;11.776;2023-02-18T11:03:22;1.67;;;0.60;;
34184;SDS011;20454;48.100;11.776;2023-02-18T11:06:24;3.65;;;0.75;;
34184;SDS011;20454;48.100;11.776;2023-02-18T11:09:04;1.50;;;0.82;;
34184;SDS011;20454;48.100;11.776;2023-02-18T11:11:32;1.55;;;0.90;;
34184;SDS011;20454;48.100;11.776;2023-02-18T11:14:03;1.73;;;0.60;;
34184;SDS011;20454;48.100;11.776;2023-02-18T11:26:44;0.50;;;0.50;;
34184;SDS011;20454;48.100;11.776;2023-02-18T11:29:14;0.40;;;0.40;;
34184;SDS011;20454;48.100;11.776;2023-02-18T11:31:50;0.50;;;0.50;;
34184;SDS011;20454;48.100;11.776;2023-02-18T11:34:20;1.85;;;0.77;;
34184;SDS011;20454;48.100;11.776;2023-02-18T11:36:51;0.80;;;0.43;;
34184;SDS011;20454;48.100;11.776;2023-02-18T11:39:27;0.38;;;0.38;;
34184;SDS011;20454;48.100;11.776;2023-02-18T11:42:15;0.50;;;0.45;;
34184;SDS011;20454;48.100;11.776;2023-02-18T11:44:55;1.30;;;0.35;;
34184;SDS011;20454;48.100;11.776;2023-02-18T11:47:25;3.65;;;0.80;;
34184;SDS011;20454;48.100;11.776;2023-02-18T11:52:47;1.45;;;0.55;;
34184;SDS011;20454;48.100;11.776;2023-02-18T11:55:16;1.92;;;0.60;;
34184;SDS011;20454;48.100;11.776;2023-02-18T11:58:08;0.52;;;0.40;;
34184;SDS011;20454;48.100;11.776;2023-02-18T12:00:41;5.50;;;0.70;;
34184;SDS011;20454;48.100;11.776;2023-02-18T12:06:24;1.40;;;0.52;;
34184;SDS011;20454;48.100;11.776;2023-02-18T12:12:02;1.30;;;0.70;;
34184;SDS011;20454;48.100;11.776;2023-02-18T12:14:59;0.50;;;0.50;;
34184;SDS011;20454;48.100;11.776;2023-02-18T12:32:29;0.55;;;0.55;;
34184;SDS011;20454;48.100;11.776;2023-02-18T12:47:00;0.55;;;0.50;;
34184;SDS011;20454;48.100;11.776;2023-02-18T12:52:18;0.77;;;0.40;;
34184;SDS011;20454;48.100;11.776;2023-02-18T13:07:24;0.88;;;0.52;;
34184;SDS011;20454;48.100;11.776;2023-02-18T13:10:34;0.80;;;0.70;;
34184;SDS011;20454;48.100;11.776;2023-02-18T13:13:10;0.50;;;0.50;;
34184;SDS011;20454;48.100;11.776;2023-02-18T13:15:43;0.68;;;0.55;;
34184;SDS011;20454;48.100;11.776;2023-02-18T13:18:41;0.50;;;0.50;;
34184;SDS011;20454;48.100;11.776;2023-02-18T13:21:25;2.63;;;0.52;;
34184;SDS011;20454;48.100;11.776;2023-02-18T13:24:03;0.50;;;0.50;;
34184;SDS011;20454;48.100;11.776;2023-02-18T13:37:51;1.58;;;0.43;;
34184;SDS011;20454;48.100;11.776;2023-02-18T13:40:30;0.60;;;0.60;;
34184;SDS011;20454;48.100;11.776;2023-02-18T13:43:15;0.60;;;0.60;;
34184;SDS011;20454;48.100;11.776;2023-02-18T13:48:53;0.57;;;0.47;;
34184;SDS011;20454;48.100;11.776;2023-02-18T13:56:45;0.65;;;0.60;;
34184;SDS011;20454;48.100;11.776;2023-02-18T13:59:28;1.48;;;0.70;;
34184;SDS011;20454;48.100;11.776;2023-02-18T14:10:23;2.10;;;1.00;;
34184;SDS011;20454;48.100;11.776;2023-02-18T14:25:48;0.50;;;0.50;;
34184;SDS011;20454;48.100;11.776;2023-02-18T14:28:59;0.77;;;0.68;;
34184;SDS011;20454;48.100;11.776;2023-02-18T14:31:44;1.20;;;0.50;;
34184;SDS011;20454;48.100;11.776;2023-02-18T14:45:49;15.18;;;1.45;;
34184;SDS011;20454;48.100;11.776;2023-02-18T14:51:07;1.35;;;0.95;;
34184;SDS011;20454;48.100;11.776;2023-02-18T14:53:38;1.63;;;1.00;;
34184;SDS011;20454;48.100;11.776;2023-02-18T14:56:08;0.60;;;0.60;;
34184;SDS011;20454;48.100;11.776;2023-02-18T14:58:39;2.83;;;1.00;;
34184;SDS011;20454;48.100;11.776;2023-02-18T15:01:21;1.85;;;0.60;;
34184;SDS011;20454;48.100;11.776;2023-02-18T15:03:51;1.83;;;0.60;;
34184;SDS011;20454;48.100;11.776;2023-02-18T15:08:56;1.83;;;0.80;;
34184;SDS011;20454;48.100;11.776;2023-02-18T15:11:25;0.82;;;0.82;;
34184;SDS011;20454;48.100;11.776;2023-02-18T15:14:09;6.10;;;1.08;;
34184;SDS011;20454;48.100;11.776;2023-02-18T15:16:45;1.88;;;0.63;;
34184;SDS011;20454;48.100;11.776;2023-02-18T15:19:13;1.20;;;0.80;;
34184;SDS011;20454;48.100;11.776;2023-02-18T15:21:43;0.63;;;0.50;;
34184;SDS011;20454;48.100;11.776;2023-02-18T15:24:16;0.85;;;0.77;;
34184;SDS011;20454;48.100;11.776;2023-02-18T15:26:59;2.45;;;0.90;;
34184;SDS011;20454;48.100;11.776;2023-02-18T15:29:55;2.00;;;0.63;;
34184;SDS011;20454;48.100;11.776;2023-02-18T15:32:52;0.52;;;0.52;;
34184;SDS011;20454;48.100;11.776;2023-02-18T15:35:20;0.40;;;0.40;;
34184;SDS011;20454;48.100;11.776;2023-02-18T15:37:53;0.57;;;0.57;;
34184;SDS011;20454;48.100;11.776;2023-02-18T15:40:24;0.82;;;0.82;;
34184;SDS011;20454;48.100;11.776;2023-02-18T15:42:59;2.05;;;0.60;;
34184;SDS011;20454;48.100;11.776;2023-02-18T15:45:35;0.82;;;0.60;;
34184;SDS011;20454;48.100;11.776;2023-02-18T15:48:05;1.67;;;0.85;;
34184;SDS011;20454;48.100;11.776;2023-02-18T15:50:44;5.47;;;0.63;;
34184;SDS011;20454;48.100;11.776;2023-02-18T15:53:18;1.90;;;0.70;;
34184;SDS011;20454;48.100;11.776;2023-02-18T15:55:46;2.15;;;0.60;;
34184;SDS011;20454;48.100;11.776;2023-02-18T15:58:30;1.20;;;0.80;;
34184;SDS011;20454;48.100;11.776;2023-02-18T16:00:59;0.93;;;0.50;;
34184;SDS011;20454;48.100;11.776;2023-02-18T16:03:31;0.80;;;0.80;;
34184;SDS011;20454;48.100;11.776;2023-02-18T16:08:57;2.47;;;0.60;;
34184;SDS011;20454;48.100;11.776;2023-02-18T16:11:37;1.35;;;0.82;;
34184;SDS011;20454;48.100;11.776;2023-02-18T16:14:22;3.00;;;0.90;;
34184;SDS011;20454;48.100;11.776;2023-02-18T16:17:13;1.80;;;0.90;;
34184;SDS011;20454;48.100;11.776;2023-02-18T16:19:52;1.23;;;0.60;;
34184;SDS011;20454;48.100;11.776;2023-02-18T16:22:54;1.02;;;0.90;;
34184;SDS011;20454;48.100;11.776;2023-02-18T16:25:43;1.10;;;0.80;;
34184;SDS011;20454;48.100;11.776;2023-02-18T16:28:23;1.05;;;0.70;;
34184;SDS011;20454;48.100;11.776;2023-02-18T16:30:56;1.13;;;0.55;;
34184;SDS011;20454;48.100;11.776;2023-02-18T16:33:21;2.30;;;1.35;;
34184;SDS011;20454;48.100;11.776;2023-02-18T16:35:48;0.60;;;0.60;;
34184;SDS011;20454;48.100;11.776;2023-02-18T16:38:18;0.52;;;0.52;;
34184;SDS011;20454;48.100;11.776;2023-02-18T16:40:47;0.90;;;0.50;;
34184;SDS011;20454;48.100;11.776;2023-02-18T16:43:20;0.70;;;0.60;;
34184;SDS011;20454;48.100;11.776;2023-02-18T16:45:51;5.72;;;1.20;;
34184;SDS011;20454;48.100;11.776;2023-02-18T16:48:27;2.75;;;0.55;;
34184;SDS011;20454;48.100;11.776;2023-02-18T16:51:01;0.60;;;0.60;;
34184;SDS011;20454;48.100;11.776;2023-02-18T16:53:49;0.63;;;0.63;;
34184;SDS011;20454;48.100;11.776;2023-02-18T16:56:17;0.50;;;0.50;;
34184;SDS011;20454;48.100;11.776;2023-02-18T17:01:21;0.73;;;0.60;;
34184;SDS011;20454;48.100;11.776;2023-02-18T17:03:54;1.27;;;0.55;;
34184;SDS011;20454;48.100;11.776;2023-02-18T17:06:23;1.42;;;0.70;;
34184;SDS011;20454;48.100;11.776;2023-02-18T17:08:49;0.50;;;0.50;;
34184;SDS011;20454;48.100;11.776;2023-02-18T17:11:25;0.55;;;0.55;;
34184;SDS011;20454;48.100;11.776;2023-02-18T17:13:55;0.60;;;0.60;;
34184;SDS011;20454;48.100;11.776;2023-02-18T17:16:24;2.15;;;0.70;;
34184;SDS011;20454;48.100;11.776;2023-02-18T17:18:51;2.38;;;1.85;;
34184;SDS011;20454;48.100;11.776;2023-02-18T17:21:18;0.88;;;0.50;;
34184;SDS011;20454;48.100;11.776;2023-02-18T17:23:46;1.17;;;0.60;;
34184;SDS011;20454;48.100;11.776;2023-02-18T17:28:50;0.70;;;0.60;;
34184;SDS011;20454;48.100;11.776;2023-02-18T17:34:18;0.95;;;0.63;;
34184;SDS011;20454;48.100;11.776;2023-02-18T17:36:50;3.00;;;1.15;;
34184;SDS011;20454;48.100;11.776;2023-02-18T17:39:16;0.50;;;0.50;;
34184;SDS011;20454;48.100;11.776;2023-02-18T17:41:42;0.60;;;0.60;;
34184;SDS011;20454;48.100;11.776;2023-02-18T17:44:13;1.73;;;0.60;;
34184;SDS011;20454;48.100;11.776;2023-02-18T17:46:41;0.50;;;0.50;;
34184;SDS011;20454;48.100;11.776;2023-02-18T17:49:07;1.05;;;0.50;;
34184;SDS011;20454;48.100;11.776;2023-02-18T17:51:32;0.82;;;0.63;;
34184;SDS011;20454;48.100;11.776;2023-02-18T17:54:00;0.63;;;0.60;;
34184;SDS011;20454;48.100;11.776;2023-02-18T17:56:28;36.00;;;33.90;;
34184;SDS011;20454;48.100;11.776;2023-02-18T17:58:54;261.17;;;80.07;;
34184;SDS011;20454;48.100;11.776;2023-02-18T18:01:19;321.10;;;108.47;;
34184;SDS011;20454;48.100;11.776;2023-02-18T18:03:47;425.75;;;202.63;;
34184;SDS011;20454;48.100;11.776;2023-02-18T18:06:13;253.35;;;100.05;;
34184;SDS011;20454;48.100;11.776;2023-02-18T18:08:42;1.02;;;0.60;;
34184;SDS011;20454;48.100;11.776;2023-02-18T18:11:16;2.45;;;0.90;;
34184;SDS011;20454;48.100;11.776;2023-02-18T18:13:45;2.63;;;1.85;;
34184;SDS011;20454;48.100;11.776;2023-02-18T18:16:12;1.02;;;0.75;;
34184;SDS011;20454;48.100;11.776;2023-02-18T18:18:40;0.70;;;0.70;;
34184;SDS011;20454;48.100;11.776;2023-02-18T18:21:08;1.70;;;1.60;;
34184;SDS011;20454;48.100;11.776;2023-02-18T18:23:56;492.02;;;295.30;;
34184;SDS011;20454;48.100;11.776;2023-02-18T22:29:40;14.80;;;13.93;;
34184;SDS011;20454;48.100;11.776;2023-02-18T22:32:06;16.00;;;14.70;;
34184;SDS011;20454;48.100;11.776;2023-02-18T22:34:32;15.10;;;13.85;;
34184;SDS011;20454;48.100;11.776;2023-02-18T22:36:58;17.42;;;16.05;;
34184;SDS011;20454;48.100;11.776;2023-02-18T22:39:23;90.22;;;33.90;;
34184;SDS011;20454;48.100;11.776;2023-02-18T22:41:50;33.10;;;16.08;;
34184;SDS011;20454;48.100;11.776;2023-02-18T22:44:16;16.40;;;13.43;;
34184;SDS011;20454;48.100;11.776;2023-02-18T22:46:42;117.65;;;39.15;;
34184;SDS011;20454;48.100;11.776;2023-02-18T22:49:08;53.25;;;23.20;;
34184;SDS011;20454;48.100;11.776;2023-02-18T22:51:36;24.30;;;16.73;;
34184;SDS011;20454;48.100;11.776;2023-02-18T22:54:05;53.78;;;22.35;;
34184;SDS011;20454;48.100;11.776;2023-02-18T22:56:38;83.07;;;35.08;;
34184;SDS011;20454;48.100;11.776;2023-02-18T22:59:04;63.60;;;26.13;;
34184;SDS011;20454;48.100;11.776;2023-02-18T23:01:34;58.05;;;24.98;;
34184;SDS011;20454;48.100;11.776;2023-02-18T23:04:08;123.18;;;46.45;;
34184;SDS011;20454;48.100;11.776;2023-02-18T23:06:39;31.10;;;18.55;;
34184;SDS011;20454;48.100;11.776;2023-02-18T23:09:08;114.57;;;36.72;;
34184;SDS011;20454;48.100;11.776;2023-02-18T23:11:40;141.80;;;45.95;;
34184;SDS011;20454;48.100;11.776;2023-02-18T23:14:06;126.32;;;42.25;;
34184;SDS011;20454;48.100;11.776;2023-02-18T23:16:41;104.93;;;35.53;;
34184;SDS011;20454;48.100;11.776;2023-02-18T23:19:26;168.55;;;51.72;;
34184;SDS011;20454;48.100;11.776;2023-02-18T23:21:54;161.68;;;49.63;;
34184;SDS011;20454;48.100;11.776;2023-02-18T23:24:20;168.07;;;51.22;;
34184;SDS011;20454;48.100;11.776;2023-02-18T23:26:46;154.45;;;47.78;;
34184;SDS011;20454;48.100;11.776;2023-02-18T23:29:13;167.32;;;51.78;;
34184;SDS011;20454;48.100;11.776;2023-02-18T23:31:40;152.18;;;48.45;;
34184;SDS011;20454;48.100;11.776;2023-02-18T23:34:06;151.65;;;49.42;;
34184;SDS011;20454;48.100;11.776;2023-02-18T23:36:36;154.00;;;50.50;;
34184;SDS011;20454;48.100;11.776;2023-02-18T23:39:06;149.35;;;48.90;;
34184;SDS011;20454;48.100;11.776;2023-02-18T23:41:34;120.05;;;43.55;;
34184;SDS011;20454;48.100;11.776;2023-02-18T23:44:01;128.27;;;45.70;;
34184;SDS011;20454;48.100;11.776;2023-02-18T23:46:29;134.73;;;46.03;;
34184;SDS011;20454;48.100;11.776;2023-02-18T23:48:55;165.30;;;52.42;;
34184;SDS011;20454;48.100;11.776;2023-02-18T23:51:22;141.27;;;47.22;;
34184;SDS011;20454;48.100;11.776;2023-02-18T23:53:48;149.50;;;50.72;;
34184;SDS011;20454;48.100;11.776;2023-02-18T23:58:43;137.77;;;46.83;;
